Time;durP1;ratioP1;P1;durP2;ratioP2;P2;SDS_P1;SDS_P2;PMS_P1;PMS_P2;Temp;Humidity;BMP_temperature;BMP_pressure;BME280_temperature;BME280_humidity;BME280_pressure;Samples;Min_cycle;Max_cycle;Signal;HPM_P1;HPM_P2
2022/03/27 00:01:20;;;;;;;13.13;7.13;;;;;;;;;;5102811;28;20054;-60
2022/03/27 00:03:46;;;;;;;11.27;5.85;;;;;;;;;;5101593;28;20056;-60
2022/03/27 00:06:12;;;;;;;9.52;5.68;;;;;;;;;;5102377;28;20546;-60
2022/03/27 00:08:38;;;;;;;10.15;6.10;;;;;;;;;;5096738;28;20048;-60
2022/03/27 00:13:49;;;;;;;12.95;6.68;;;;;;;;;;5092865;28;20055;-60
2022/03/27 00:16:15;;;;;;;13.13;5.82;;;;;;;;;;5086644;28;20036;-60
2022/03/27 00:18:41;;;;;;;12.90;6.22;;;;;;;;;;5094492;28;20051;-60
2022/03/27 00:21:08;;;;;;;18.35;6.90;;;;;;;;;;5094604;28;20044;-61
2022/03/27 00:23:34;;;;;;;16.00;7.07;;;;;;;;;;5086024;28;20041;-61
2022/03/27 00:26:00;;;;;;;15.23;6.50;;;;;;;;;;5087818;28;20049;-60
2022/03/27 00:28:31;;;;;;;14.52;7.03;;;;;;;;;;5105053;28;20044;-60
2022/03/27 00:30:59;;;;;;;13.05;6.47;;;;;;;;;;5103946;28;20075;-60
2022/03/27 00:33:25;;;;;;;10.25;6.15;;;;;;;;;;5105798;28;20051;-60
2022/03/27 00:35:51;;;;;;;18.13;6.13;;;;;;;;;;5105594;28;20044;-61
2022/03/27 00:38:17;;;;;;;22.00;7.15;;;;;;;;;;5104979;28;20096;-61
2022/03/27 00:40:43;;;;;;;15.85;6.40;;;;;;;;;;5106162;28;20109;-60
2022/03/27 00:43:09;;;;;;;21.25;7.10;;;;;;;;;;5105700;28;20043;-61
2022/03/27 00:45:35;;;;;;;17.48;7.03;;;;;;;;;;5105658;28;20052;-60
2022/03/27 00:48:02;;;;;;;17.13;6.78;;;;;;;;;;5087304;28;20411;-61
2022/03/27 00:50:30;;;;;;;18.38;7.20;;;;;;;;;;5085557;28;20069;-61
2022/03/27 00:52:57;;;;;;;21.17;8.10;;;;;;;;;;5084614;28;20045;-61
2022/03/27 00:55:23;;;;;;;18.42;7.78;;;;;;;;;;5094560;28;20043;-60
2022/03/27 00:57:49;;;;;;;16.10;6.22;;;;;;;;;;5105429;28;20055;-60
2022/03/27 01:00:34;;;;;;;12.88;6.43;;;;;;;;;;5105706;28;20566;-60
2022/03/27 01:03:00;;;;;;;16.55;7.38;;;;;;;;;;5104908;28;20056;-60
2022/03/27 01:05:28;;;;;;;17.63;7.57;;;;;;;;;;5095614;28;20040;-60
2022/03/27 01:07:54;;;;;;;16.80;7.03;;;;;;;;;;5084559;28;20490;-60
2022/03/27 01:10:23;;;;;;;18.17;8.02;;;;;;;;;;5105204;28;20047;-60
2022/03/27 01:12:49;;;;;;;22.48;6.57;;;;;;;;;;5096174;28;20041;-60
2022/03/27 01:15:32;;;;;;;19.05;8.10;;;;;;;;;;5084815;28;20051;-60
2022/03/27 01:17:58;;;;;;;25.65;7.95;;;;;;;;;;5084666;28;20041;-60
2022/03/27 01:20:30;;;;;;;19.85;7.43;;;;;;;;;;5085004;28;20825;-60
2022/03/27 01:22:56;;;;;;;24.52;8.43;;;;;;;;;;5092237;28;20803;-60
2022/03/27 01:25:22;;;;;;;24.98;9.32;;;;;;;;;;5104956;28;20128;-60
2022/03/27 01:27:48;;;;;;;27.65;10.20;;;;;;;;;;5105214;28;20048;-60
2022/03/27 01:30:14;;;;;;;25.70;9.88;;;;;;;;;;5103648;28;20078;-60
2022/03/27 01:32:40;;;;;;;24.98;11.48;;;;;;;;;;5102517;28;20036;-60
2022/03/27 01:35:07;;;;;;;32.00;11.65;;;;;;;;;;5104240;28;20096;-60
2022/03/27 01:37:33;;;;;;;22.85;11.60;;;;;;;;;;5104153;28;20048;-60
2022/03/27 01:39:59;;;;;;;29.35;11.88;;;;;;;;;;5104799;28;20066;-60
2022/03/27 01:42:25;;;;;;;31.60;12.93;;;;;;;;;;5098611;28;20075;-60
2022/03/27 01:44:52;;;;;;;29.73;13.98;;;;;;;;;;5084455;28;20105;-60
2022/03/27 01:47:18;;;;;;;34.97;12.52;;;;;;;;;;5083955;28;20055;-60
2022/03/27 01:49:44;;;;;;;28.92;12.32;;;;;;;;;;5084568;28;20531;-60
2022/03/27 01:52:10;;;;;;;33.55;13.30;;;;;;;;;;5087162;28;20044;-61
2022/03/27 01:54:36;;;;;;;39.08;14.10;;;;;;;;;;5105037;28;20054;-60
2022/03/27 01:57:03;;;;;;;29.00;13.82;;;;;;;;;;5104336;28;20040;-60
2022/03/27 01:59:29;;;;;;;33.55;13.77;;;;;;;;;;5104360;28;20055;-60
2022/03/27 02:01:55;;;;;;;27.58;13.27;;;;;;;;;;5099686;28;20051;-61
2022/03/27 02:04:21;;;;;;;29.13;13.40;;;;;;;;;;5084213;28;20075;-60
2022/03/27 02:06:47;;;;;;;27.45;13.52;;;;;;;;;;5083813;28;20049;-60
2022/03/27 02:09:13;;;;;;;33.63;13.75;;;;;;;;;;5089752;28;20053;-60
2022/03/27 02:11:43;;;;;;;29.10;13.13;;;;;;;;;;5099080;28;20051;-60
2022/03/27 02:14:09;;;;;;;27.45;12.63;;;;;;;;;;5104144;28;20154;-61
2022/03/27 02:16:36;;;;;;;30.48;12.80;;;;;;;;;;5103895;28;20056;-60
2022/03/27 02:19:02;;;;;;;30.17;13.45;;;;;;;;;;5104515;28;20055;-60
2022/03/27 02:21:28;;;;;;;30.70;12.73;;;;;;;;;;5089464;28;20067;-60
2022/03/27 02:23:54;;;;;;;28.02;13.93;;;;;;;;;;5084571;28;20048;-60
2022/03/27 02:26:21;;;;;;;33.53;15.32;;;;;;;;;;5083727;28;20047;-60
2022/03/27 02:28:47;;;;;;;46.60;15.60;;;;;;;;;;5083649;28;20063;-60
2022/03/27 02:31:13;;;;;;;43.95;15.10;;;;;;;;;;5094326;28;20089;-61
2022/03/27 02:33:39;;;;;;;59.38;17.52;;;;;;;;;;5103909;28;20044;-60
2022/03/27 02:36:08;;;;;;;81.13;17.67;;;;;;;;;;5103581;28;20488;-60
2022/03/27 02:38:35;;;;;;;91.82;17.48;;;;;;;;;;5104257;28;20047;-60
2022/03/27 02:41:01;;;;;;;103.28;16.77;;;;;;;;;;5094461;28;20100;-60
2022/03/27 02:43:27;;;;;;;116.88;18.85;;;;;;;;;;5083859;28;20052;-61
2022/03/27 02:45:54;;;;;;;179.30;21.77;;;;;;;;;;5083645;28;20036;-61
2022/03/27 02:48:21;;;;;;;168.07;22.13;;;;;;;;;;5095240;28;20048;-60
2022/03/27 02:50:47;;;;;;;143.38;20.30;;;;;;;;;;5100863;28;20485;-60
2022/03/27 02:53:13;;;;;;;132.90;20.23;;;;;;;;;;5086950;28;20075;-60
2022/03/27 02:55:39;;;;;;;128.32;21.48;;;;;;;;;;5087517;28;20074;-61
2022/03/27 02:58:05;;;;;;;165.48;21.58;;;;;;;;;;5087426;28;20096;-60
2022/03/27 03:00:32;;;;;;;242.40;26.92;;;;;;;;;;5106330;28;20135;-60
2022/03/27 03:02:58;;;;;;;137.63;19.08;;;;;;;;;;5106974;28;20535;-60
2022/03/27 03:05:24;;;;;;;124.85;20.80;;;;;;;;;;5108043;28;20120;-60
2022/03/27 03:07:50;;;;;;;115.95;18.85;;;;;;;;;;5092795;28;20072;-60
2022/03/27 03:10:17;;;;;;;116.28;20.25;;;;;;;;;;5087355;28;20068;-60
2022/03/27 03:12:43;;;;;;;123.85;21.27;;;;;;;;;;5087041;28;20123;-60
2022/03/27 03:15:09;;;;;;;84.40;19.45;;;;;;;;;;5087306;28;20055;-60
2022/03/27 03:17:36;;;;;;;76.13;18.08;;;;;;;;;;5097289;28;20068;-60
2022/03/27 03:20:03;;;;;;;79.70;17.55;;;;;;;;;;5107801;28;20200;-60
2022/03/27 03:22:29;;;;;;;66.95;17.55;;;;;;;;;;5106687;28;20051;-60
2022/03/27 03:24:55;;;;;;;96.63;20.92;;;;;;;;;;5107450;28;20041;-61
2022/03/27 03:27:21;;;;;;;134.25;20.50;;;;;;;;;;5098361;28;20044;-60
2022/03/27 03:29:48;;;;;;;109.05;19.20;;;;;;;;;;5087147;28;20124;-60
2022/03/27 03:32:14;;;;;;;85.10;19.10;;;;;;;;;;5086657;28;20128;-60
2022/03/27 03:34:40;;;;;;;103.80;19.33;;;;;;;;;;5087183;28;20129;-60
2022/03/27 03:37:06;;;;;;;112.20;19.08;;;;;;;;;;5105648;28;20111;-60
2022/03/27 03:39:32;;;;;;;125.63;20.20;;;;;;;;;;5106068;28;20040;-60
2022/03/27 03:41:58;;;;;;;62.08;16.67;;;;;;;;;;5106990;28;20035;-61
2022/03/27 03:44:26;;;;;;;43.97;15.10;;;;;;;;;;5107042;28;20051;-60
2022/03/27 03:46:53;;;;;;;100.38;18.60;;;;;;;;;;5089137;28;20051;-61
2022/03/27 03:49:20;;;;;;;82.25;17.02;;;;;;;;;;5086789;28;20040;-61
2022/03/27 03:51:46;;;;;;;91.97;16.57;;;;;;;;;;5085988;28;20048;-61
2022/03/27 03:54:13;;;;;;;91.85;17.20;;;;;;;;;;5086581;28;20315;-61
2022/03/27 03:56:39;;;;;;;74.80;15.40;;;;;;;;;;5101555;28;20062;-62
2022/03/27 03:59:05;;;;;;;96.20;16.67;;;;;;;;;;5106457;28;20650;-61
2022/03/27 04:01:32;;;;;;;36.22;14.10;;;;;;;;;;5106789;28;20044;-60
2022/03/27 04:03:58;;;;;;;49.22;16.10;;;;;;;;;;5106466;28;20056;-60
2022/03/27 04:06:24;;;;;;;45.78;15.65;;;;;;;;;;5093292;28;20041;-60
2022/03/27 04:08:50;;;;;;;50.35;14.82;;;;;;;;;;5086420;28;20067;-61
2022/03/27 04:11:17;;;;;;;47.58;16.38;;;;;;;;;;5086193;28;20056;-62
2022/03/27 04:13:46;;;;;;;37.63;13.57;;;;;;;;;;5086500;28;20048;-61
2022/03/27 04:16:13;;;;;;;39.75;15.23;;;;;;;;;;5096297;28;20040;-61
2022/03/27 04:18:40;;;;;;;32.75;14.25;;;;;;;;;;5105894;28;20044;-61
2022/03/27 04:21:06;;;;;;;39.35;13.32;;;;;;;;;;5105982;28;20177;-61
2022/03/27 04:23:32;;;;;;;33.78;13.10;;;;;;;;;;5106311;28;20044;-61
2022/03/27 04:25:59;;;;;;;31.65;12.10;;;;;;;;;;5104444;28;20517;-61
2022/03/27 04:28:25;;;;;;;43.47;13.93;;;;;;;;;;5096531;28;20068;-61
2022/03/27 04:30:51;;;;;;;34.88;12.85;;;;;;;;;;5086074;28;20056;-61
2022/03/27 04:33:17;;;;;;;40.85;13.95;;;;;;;;;;5085433;28;20574;-61
2022/03/27 04:35:43;;;;;;;45.08;14.43;;;;;;;;;;5085805;28;20128;-61
2022/03/27 04:38:10;;;;;;;41.63;13.35;;;;;;;;;;5104323;28;20088;-61
2022/03/27 04:40:36;;;;;;;37.97;14.30;;;;;;;;;;5106016;28;20048;-61
2022/03/27 04:43:03;;;;;;;36.78;14.80;;;;;;;;;;5106027;28;20036;-61
2022/03/27 04:45:29;;;;;;;38.83;13.25;;;;;;;;;;5106209;28;20044;-61
2022/03/27 04:47:55;;;;;;;28.67;12.07;;;;;;;;;;5086617;28;20045;-60
2022/03/27 04:50:21;;;;;;;47.65;12.90;;;;;;;;;;5085643;28;20044;-60
2022/03/27 04:52:47;;;;;;;55.50;14.10;;;;;;;;;;5084922;28;20107;-61
2022/03/27 04:55:13;;;;;;;44.75;14.93;;;;;;;;;;5085295;28;20052;-61
2022/03/27 04:57:41;;;;;;;53.50;13.88;;;;;;;;;;5101490;28;20123;-62
2022/03/27 05:00:11;;;;;;;59.08;15.63;;;;;;;;;;5103853;28;20056;-61
2022/03/27 05:02:40;;;;;;;53.47;15.27;;;;;;;;;;5104790;28;20075;-61
2022/03/27 05:05:08;;;;;;;52.25;14.93;;;;;;;;;;5105395;28;20084;-60
2022/03/27 05:07:36;;;;;;;42.83;14.13;;;;;;;;;;5105029;28;20102;-61
2022/03/27 05:10:03;;;;;;;60.38;13.82;;;;;;;;;;5104029;28;20101;-61
2022/03/27 05:12:29;;;;;;;61.40;13.15;;;;;;;;;;5085286;28;20045;-60
2022/03/27 05:14:55;;;;;;;41.70;10.77;;;;;;;;;;5084917;28;20045;-62
2022/03/27 05:17:21;;;;;;;33.92;10.70;;;;;;;;;;5094566;28;20078;-61
2022/03/27 05:19:47;;;;;;;43.08;10.00;;;;;;;;;;5105196;28;20059;-61
2022/03/27 05:22:13;;;;;;;35.88;9.88;;;;;;;;;;5102746;28;20051;-62
2022/03/27 05:24:39;;;;;;;34.85;10.30;;;;;;;;;;5105240;28;20044;-62
2022/03/27 05:27:06;;;;;;;39.25;9.48;;;;;;;;;;5105314;28;20070;-61
2022/03/27 05:29:32;;;;;;;36.40;8.90;;;;;;;;;;5105016;28;20103;-61
2022/03/27 05:31:58;;;;;;;31.58;8.90;;;;;;;;;;5091903;28;20071;-61
2022/03/27 05:34:25;;;;;;;36.05;8.07;;;;;;;;;;5084705;28;20069;-61
2022/03/27 05:36:51;;;;;;;46.75;9.00;;;;;;;;;;5084073;28;20428;-61
2022/03/27 05:39:17;;;;;;;43.03;9.38;;;;;;;;;;5102607;28;20054;-61
2022/03/27 05:41:44;;;;;;;41.85;8.18;;;;;;;;;;5104873;28;20093;-61
2022/03/27 05:44:10;;;;;;;29.30;8.40;;;;;;;;;;5104863;28;20410;-61
2022/03/27 05:46:37;;;;;;;54.25;10.15;;;;;;;;;;5104254;28;20103;-61
2022/03/27 05:49:03;;;;;;;30.90;9.10;;;;;;;;;;5088508;28;20103;-61
2022/03/27 05:51:29;;;;;;;60.95;8.68;;;;;;;;;;5083838;28;20040;-61
2022/03/27 05:53:56;;;;;;;60.50;10.60;;;;;;;;;;5084659;28;20067;-61
2022/03/27 05:56:22;;;;;;;43.30;7.97;;;;;;;;;;5084207;28;20048;-61
2022/03/27 05:58:48;;;;;;;46.20;9.07;;;;;;;;;;5100123;28;20048;-61
2022/03/27 06:01:14;;;;;;;61.30;9.80;;;;;;;;;;5104376;28;20048;-61
2022/03/27 06:03:41;;;;;;;60.17;9.52;;;;;;;;;;5102548;28;20066;-61
2022/03/27 06:06:07;;;;;;;68.25;12.18;;;;;;;;;;5103852;28;20051;-62
2022/03/27 06:08:33;;;;;;;61.80;10.23;;;;;;;;;;5090870;28;20076;-62
2022/03/27 06:11:00;;;;;;;62.83;12.00;;;;;;;;;;5084031;28;20044;-61
2022/03/27 06:13:26;;;;;;;61.70;10.57;;;;;;;;;;5084123;28;20044;-61
2022/03/27 06:15:54;;;;;;;81.65;12.02;;;;;;;;;;5097394;28;20579;-61
2022/03/27 06:18:20;;;;;;;;;;;;;;;;;;5104538;28;20085;-61
2022/03/27 06:20:46;;;;;;;75.78;10.23;;;;;;;;;;5104229;28;19920;-61
2022/03/27 06:23:13;;;;;;;81.80;12.00;;;;;;;;;;5103934;28;20096;-62
2022/03/27 06:25:39;;;;;;;65.95;12.18;;;;;;;;;;5103402;28;20051;-61
2022/03/27 06:28:05;;;;;;;69.30;10.63;;;;;;;;;;5104174;28;20055;-61
2022/03/27 06:30:32;;;;;;;71.35;11.93;;;;;;;;;;5104156;28;20055;-62
2022/03/27 06:33:01;;;;;;;75.50;12.45;;;;;;;;;;5103838;28;20048;-61
2022/03/27 06:35:28;;;;;;;68.03;11.95;;;;;;;;;;5102472;28;20451;-61
2022/03/27 06:37:54;;;;;;;74.50;11.57;;;;;;;;;;5103777;28;20059;-61
2022/03/27 06:40:20;;;;;;;68.82;10.18;;;;;;;;;;5104133;28;20565;-61
2022/03/27 06:42:47;;;;;;;52.63;9.02;;;;;;;;;;5103918;28;20191;-61
2022/03/27 06:45:14;;;;;;;73.03;11.20;;;;;;;;;;5095991;28;20071;-62
2022/03/27 06:47:40;;;;;;;59.33;10.57;;;;;;;;;;5083617;28;20098;-61
2022/03/27 06:50:07;;;;;;;60.60;9.27;;;;;;;;;;5083576;28;20079;-61
2022/03/27 06:52:34;;;;;;;66.15;11.57;;;;;;;;;;5083319;28;20447;-61
2022/03/27 06:55:00;;;;;;;49.05;9.45;;;;;;;;;;5087050;28;20131;-61
2022/03/27 06:57:27;;;;;;;68.47;11.10;;;;;;;;;;5103591;28;20040;-62
2022/03/27 07:05:24;;;;;;;70.93;9.98;;;;;;;;;;5103562;28;20048;-62
2022/03/27 07:07:50;;;;;;;48.83;9.85;;;;;;;;;;5103449;28;20048;-61
2022/03/27 07:10:17;;;;;;;70.40;11.35;;;;;;;;;;5103907;28;20055;-62
2022/03/27 07:12:44;;;;;;;67.65;10.52;;;;;;;;;;5098805;28;20493;-62
2022/03/27 07:15:10;;;;;;;55.92;7.45;;;;;;;;;;5083495;28;20397;-61
2022/03/27 07:17:44;;;;;;;68.82;11.55;;;;;;;;;;5083129;28;20065;-61
2022/03/27 07:20:10;;;;;;;35.78;7.35;;;;;;;;;;5083355;28;20171;-61
2022/03/27 07:22:37;;;;;;;58.25;9.82;;;;;;;;;;5083598;28;20100;-61
2022/03/27 07:25:03;;;;;;;49.38;8.30;;;;;;;;;;5083778;28;20059;-61
2022/03/27 07:27:31;;;;;;;58.97;10.63;;;;;;;;;;5083181;28;20045;-61
2022/03/27 07:29:57;;;;;;;43.30;8.18;;;;;;;;;;5083487;28;20063;-62
2022/03/27 07:32:23;;;;;;;56.22;7.82;;;;;;;;;;5083652;28;20100;-62
2022/03/27 07:34:49;;;;;;;51.35;10.68;;;;;;;;;;5107297;28;20429;-61
2022/03/27 07:37:16;;;;;;;55.25;8.32;;;;;;;;;;5106597;28;20036;-61
2022/03/27 07:39:42;;;;;;;60.45;8.18;;;;;;;;;;5107519;28;20048;-62
2022/03/27 07:42:08;;;;;;;52.33;8.95;;;;;;;;;;5091397;28;20104;-61
2022/03/27 07:44:35;;;;;;;48.20;8.65;;;;;;;;;;5090015;28;20045;-61
2022/03/27 07:47:01;;;;;;;51.13;9.25;;;;;;;;;;5092208;28;20055;-62
2022/03/27 07:49:27;;;;;;;38.13;6.32;;;;;;;;;;5096650;28;20044;-61
2022/03/27 07:51:54;;;;;;;53.40;8.27;;;;;;;;;;5091707;28;20049;-61
2022/03/27 07:54:20;;;;;;;52.00;9.63;;;;;;;;;;5097761;28;20044;-61
2022/03/27 07:56:46;;;;;;;54.42;8.10;;;;;;;;;;5126129;28;20130;-62
2022/03/27 07:59:12;;;;;;;51.72;9.10;;;;;;;;;;5108477;28;20119;-61
2022/03/27 08:01:38;;;;;;;46.03;9.85;;;;;;;;;;5099460;28;20132;-62
2022/03/27 08:04:05;;;;;;;57.58;9.15;;;;;;;;;;5106377;28;20064;-62
2022/03/27 08:06:36;;;;;;;53.95;11.57;;;;;;;;;;5104620;28;20491;-62
2022/03/27 08:09:03;;;;;;;49.03;9.00;;;;;;;;;;5104894;28;20052;-62
2022/03/27 08:11:29;;;;;;;39.40;7.03;;;;;;;;;;5099815;28;20091;-61
2022/03/27 08:13:55;;;;;;;36.75;6.40;;;;;;;;;;5086194;28;20080;-61
2022/03/27 08:16:21;;;;;;;56.92;10.82;;;;;;;;;;5086871;28;20095;-61
2022/03/27 08:18:48;;;;;;;51.65;9.52;;;;;;;;;;5085726;28;20044;-61
2022/03/27 08:21:14;;;;;;;37.42;8.13;;;;;;;;;;5090598;28;20632;-60
2022/03/27 08:23:40;;;;;;;45.60;7.15;;;;;;;;;;5093029;28;20043;-61
2022/03/27 08:28:51;;;;;;;41.45;7.20;;;;;;;;;;5085955;28;20040;-60
2022/03/27 08:31:17;;;;;;;40.78;7.10;;;;;;;;;;5091780;28;20036;-62
2022/03/27 08:33:44;;;;;;;43.35;9.40;;;;;;;;;;5088534;28;20040;-61
2022/03/27 08:36:10;;;;;;;44.67;8.53;;;;;;;;;;5096938;28;20566;-62
2022/03/27 08:38:37;;;;;;;43.97;8.15;;;;;;;;;;5095346;28;20032;-62
2022/03/27 08:41:04;;;;;;;33.47;7.15;;;;;;;;;;5100483;28;20044;-61
2022/03/27 08:43:32;;;;;;;39.38;7.32;;;;;;;;;;5105695;28;20048;-62
2022/03/27 08:45:58;;;;;;;41.80;7.78;;;;;;;;;;5102152;28;20036;-63
2022/03/27 08:48:25;;;;;;;34.70;7.32;;;;;;;;;;5100261;28;20093;-61
2022/03/27 08:50:58;;;;;;;40.88;7.38;;;;;;;;;;5097979;28;20142;-61
2022/03/27 08:53:36;;;;;;;32.47;6.88;;;;;;;;;;5092643;28;20143;-61
2022/03/27 08:56:08;;;;;;;40.45;6.97;;;;;;;;;;5095472;28;20089;-62
2022/03/27 08:58:37;;;;;;;49.67;7.63;;;;;;;;;;5105509;28;20047;-61
2022/03/27 09:01:04;;;;;;;33.30;6.05;;;;;;;;;;5104214;28;20040;-61
2022/03/27 09:03:31;;;;;;;42.72;7.65;;;;;;;;;;5117627;28;20059;-61
2022/03/27 09:05:59;;;;;;;36.63;7.53;;;;;;;;;;5104679;28;20107;-61
2022/03/27 09:08:25;;;;;;;29.85;7.07;;;;;;;;;;5097238;28;20504;-61
2022/03/27 09:10:51;;;;;;;37.95;7.15;;;;;;;;;;5091385;28;20063;-62
2022/03/27 09:13:19;;;;;;;31.08;7.35;;;;;;;;;;5102597;28;20040;-62
2022/03/27 09:15:46;;;;;;;25.80;5.97;;;;;;;;;;5098006;28;20059;-62
2022/03/27 09:18:12;;;;;;;36.25;5.38;;;;;;;;;;5089932;28;20099;-62
2022/03/27 09:20:40;;;;;;;34.67;7.77;;;;;;;;;;5104237;28;20543;-61
2022/03/27 09:23:11;;;;;;;42.90;9.57;;;;;;;;;;5092462;28;20044;-63
2022/03/27 09:25:44;;;;;;;38.33;7.63;;;;;;;;;;5097737;28;20107;-61
2022/03/27 09:28:11;;;;;;;38.75;6.75;;;;;;;;;;5090891;28;20515;-61
2022/03/27 09:30:37;;;;;;;25.60;6.10;;;;;;;;;;5102681;28;20084;-61
2022/03/27 09:33:03;;;;;;;38.22;7.53;;;;;;;;;;5094575;28;20056;-62
2022/03/27 09:35:29;;;;;;;28.73;6.32;;;;;;;;;;5084623;28;20103;-61
2022/03/27 09:37:55;;;;;;;45.50;7.80;;;;;;;;;;5083114;28;20049;-61
2022/03/27 09:40:22;;;;;;;38.60;7.85;;;;;;;;;;5100609;28;20025;-62
2022/03/27 09:43:08;;;;;;;37.17;7.45;;;;;;;;;;5084131;28;20053;-63
2022/03/27 09:45:34;;;;;;;36.28;7.13;;;;;;;;;;5088153;28;20119;-64
2022/03/27 09:48:07;;;;;;;38.85;7.05;;;;;;;;;;5093035;28;20108;-62
2022/03/27 09:50:40;;;;;;;36.58;7.85;;;;;;;;;;5091468;28;20036;-61
2022/03/27 09:53:22;;;;;;;36.92;6.30;;;;;;;;;;5083608;28;20068;-62
2022/03/27 09:55:55;;;;;;;31.75;6.43;;;;;;;;;;5084614;28;20048;-61
2022/03/27 09:58:39;;;;;;;27.15;5.65;;;;;;;;;;5086845;28;20052;-62
2022/03/27 10:01:15;;;;;;;32.85;6.35;;;;;;;;;;5083242;28;20036;-62
2022/03/27 10:04:00;;;;;;;33.70;6.60;;;;;;;;;;5093813;28;20056;-62
2022/03/27 10:06:29;;;;;;;31.02;6.93;;;;;;;;;;5083660;28;20060;-60
2022/03/27 10:08:56;;;;;;;30.15;6.25;;;;;;;;;;5087062;28;20047;-64
2022/03/27 10:11:23;;;;;;;37.92;6.78;;;;;;;;;;5086227;28;20136;-65
2022/03/27 10:13:54;;;;;;;40.90;7.18;;;;;;;;;;5098091;28;20040;-70
2022/03/27 10:16:34;;;;;;;24.48;5.50;;;;;;;;;;5091450;28;20040;-72
2022/03/27 10:19:13;;;;;;;29.98;6.35;;;;;;;;;;5083791;28;20044;-68
2022/03/27 10:21:42;;;;;;;25.50;6.07;;;;;;;;;;5096501;28;20131;-63
2022/03/27 10:24:15;;;;;;;34.78;5.97;;;;;;;;;;5100328;28;20048;-64
2022/03/27 10:26:43;;;;;;;36.10;6.15;;;;;;;;;;5100038;28;20071;-65
2022/03/27 10:29:10;;;;;;;27.13;6.47;;;;;;;;;;5103811;28;20129;-65
2022/03/27 10:31:36;;;;;;;30.30;5.63;;;;;;;;;;5088913;28;20113;-64
2022/03/27 10:34:04;;;;;;;31.85;7.28;;;;;;;;;;5092667;28;20132;-66
2022/03/27 10:36:48;;;;;;;32.97;6.30;;;;;;;;;;5082018;28;20045;-66
2022/03/27 10:39:20;;;;;;;29.27;6.30;;;;;;;;;;5094329;28;20044;-62
2022/03/27 10:42:08;;;;;;;39.58;7.72;;;;;;;;;;5095731;28;20103;-71
2022/03/27 10:44:37;;;;;;;25.50;4.78;;;;;;;;;;5088895;28;20056;-71
2022/03/27 10:47:11;;;;;;;31.95;7.80;;;;;;;;;;5086908;28;20607;-70
2022/03/27 10:49:37;;;;;;;28.67;4.75;;;;;;;;;;5092832;28;20531;-69
2022/03/27 10:52:04;;;;;;;23.92;6.38;;;;;;;;;;5090471;28;20050;-66
2022/03/27 10:54:31;;;;;;;24.33;5.55;;;;;;;;;;5088672;28;20078;-66
2022/03/27 10:56:58;;;;;;;30.85;5.43;;;;;;;;;;5102980;28;20052;-66
2022/03/27 10:59:26;;;;;;;21.58;5.32;;;;;;;;;;5088020;28;20052;-66
2022/03/27 11:01:55;;;;;;;34.83;7.22;;;;;;;;;;5082534;28;20556;-69
2022/03/27 11:04:47;;;;;;;33.05;6.35;;;;;;;;;;5092907;28;20078;-69
2022/03/27 11:07:17;;;;;;;11.05;3.67;;;;;;;;;;5101105;28;20052;-74
2022/03/27 11:09:47;;;;;;;25.35;4.32;;;;;;;;;;5105890;28;20075;-73
2022/03/27 11:12:25;;;;;;;32.92;6.88;;;;;;;;;;5090892;28;20044;-72
2022/03/27 11:15:05;;;;;;;21.08;4.32;;;;;;;;;;5089453;28;20056;-67
2022/03/27 11:17:35;;;;;;;19.00;4.20;;;;;;;;;;5089360;28;20048;-67
2022/03/27 11:20:02;;;;;;;29.13;5.50;;;;;;;;;;5095490;28;20039;-63
2022/03/27 11:22:42;;;;;;;27.42;5.68;;;;;;;;;;5090101;28;20576;-63
2022/03/27 11:25:28;;;;;;;21.75;5.93;;;;;;;;;;5086953;28;20113;-64
2022/03/27 11:27:57;;;;;;;14.02;3.35;;;;;;;;;;5092667;28;20055;-64
2022/03/27 11:30:23;;;;;;;17.48;4.38;;;;;;;;;;5091945;28;20052;-64
2022/03/27 11:33:08;;;;;;;21.77;4.80;;;;;;;;;;5094404;28;20032;-63
2022/03/27 11:35:34;;;;;;;15.52;4.40;;;;;;;;;;5090780;28;20107;-64
2022/03/27 11:38:20;;;;;;;14.07;2.95;;;;;;;;;;5092696;28;20119;-63
2022/03/27 11:40:46;;;;;;;10.05;3.15;;;;;;;;;;5087384;28;20048;-62
2022/03/27 11:43:26;;;;;;;25.05;3.83;;;;;;;;;;5090201;28;20047;-63
2022/03/27 11:45:55;;;;;;;17.27;3.72;;;;;;;;;;5085715;28;20071;-64
2022/03/27 11:48:21;;;;;;;12.73;3.20;;;;;;;;;;5094139;28;20041;-64
2022/03/27 11:50:47;;;;;;;18.75;4.03;;;;;;;;;;5093594;28;20108;-63
2022/03/27 11:53:14;;;;;;;15.45;3.60;;;;;;;;;;5091324;28;20040;-63
2022/03/27 11:55:40;;;;;;;14.18;4.05;;;;;;;;;;5090448;28;20040;-63
2022/03/27 11:58:07;;;;;;;17.90;4.40;;;;;;;;;;5085955;28;20087;-63
2022/03/27 12:00:34;;;;;;;;;;;;;;;;;;5090383;28;20050;-71
2022/03/27 12:03:01;;;;;;;15.50;3.53;;;;;;;;;;5097680;28;19965;-70
2022/03/27 12:05:27;;;;;;;;;;;;;;;;;;5087744;28;20067;-67
2022/03/27 12:07:57;;;;;;;22.20;4.25;;;;;;;;;;5090453;28;19926;-68
2022/03/27 12:10:24;;;;;;;15.95;3.22;;;;;;;;;;5090514;28;20428;-69
2022/03/27 12:13:07;;;;;;;13.05;3.35;;;;;;;;;;5085667;28;20044;-69
2022/03/27 12:15:38;;;;;;;12.60;3.10;;;;;;;;;;5085294;28;20044;-70
2022/03/27 12:18:04;;;;;;;11.68;2.63;;;;;;;;;;5089253;28;20463;-73
2022/03/27 12:20:31;;;;;;;11.00;2.80;;;;;;;;;;5086403;28;20040;-67
2022/03/27 12:22:57;;;;;;;12.55;2.70;;;;;;;;;;5090870;28;20044;-71
2022/03/27 12:25:31;;;;;;;13.05;3.33;;;;;;;;;;5102201;28;20464;-64
2022/03/27 12:30:49;;;;;;;12.85;3.47;;;;;;;;;;5099255;28;20044;-75
2022/03/27 12:33:20;;;;;;;15.63;4.20;;;;;;;;;;5098295;28;20500;-70
2022/03/27 12:35:47;;;;;;;17.20;3.80;;;;;;;;;;5087122;28;20048;-74
2022/03/27 12:38:13;;;;;;;;;;;;;;;;;;5085969;28;20041;-72
2022/03/27 12:40:43;;;;;;;11.98;3.00;;;;;;;;;;5097432;28;19927;-74
2022/03/27 12:43:14;;;;;;;13.48;2.90;;;;;;;;;;5093120;28;20037;-69
2022/03/27 12:45:41;;;;;;;13.27;3.30;;;;;;;;;;5084857;28;20396;-71
2022/03/27 12:48:07;;;;;;;;;;;;;;;;;;5086885;28;20082;-71
2022/03/27 12:50:41;;;;;;;12.65;3.22;;;;;;;;;;5091411;28;19974;-66
2022/03/27 12:53:13;;;;;;;15.30;2.90;;;;;;;;;;5084730;28;20071;-69
2022/03/27 12:55:49;;;;;;;17.08;3.85;;;;;;;;;;5096348;28;20055;-69
2022/03/27 12:58:19;;;;;;;18.17;3.92;;;;;;;;;;5086954;28;20068;-68
2022/03/27 13:01:05;;;;;;;11.00;2.85;;;;;;;;;;5088385;28;20158;-66
2022/03/27 13:03:31;;;;;;;19.58;4.30;;;;;;;;;;5085194;28;20386;-62
2022/03/27 13:05:57;;;;;;;12.23;2.92;;;;;;;;;;5084855;28;20082;-63
2022/03/27 13:08:27;;;;;;;15.30;3.47;;;;;;;;;;5091635;28;20051;-69
2022/03/27 13:11:00;;;;;;;25.48;4.80;;;;;;;;;;5092691;28;20036;-71
2022/03/27 13:13:33;;;;;;;21.27;3.55;;;;;;;;;;5099704;28;20062;-72
2022/03/27 13:15:59;;;;;;;11.32;2.55;;;;;;;;;;5090134;28;20060;-77
2022/03/27 13:18:33;;;;;;;15.98;3.42;;;;;;;;;;5091288;28;20031;-74
2022/03/27 13:21:13;;;;;;;25.95;5.05;;;;;;;;;;5095235;28;20088;-72
2022/03/27 13:23:39;;;;;;;26.73;4.30;;;;;;;;;;5097264;28;20053;-68
2022/03/27 13:26:05;;;;;;;17.58;4.25;;;;;;;;;;5095216;28;20044;-66
2022/03/27 13:28:31;;;;;;;30.10;5.78;;;;;;;;;;5092182;28;20040;-67
2022/03/27 13:30:57;;;;;;;17.63;4.40;;;;;;;;;;5098679;28;20126;-64
2022/03/27 13:33:23;;;;;;;23.95;5.10;;;;;;;;;;5095063;28;20123;-69
2022/03/27 13:35:49;;;;;;;25.38;5.47;;;;;;;;;;5102865;28;20040;-65
2022/03/27 13:38:16;;;;;;;22.17;4.93;;;;;;;;;;5104050;28;20111;-66
2022/03/27 13:43:27;;;;;;;24.10;4.30;;;;;;;;;;5087584;28;20055;-66
2022/03/27 13:45:53;;;;;;;15.77;4.25;;;;;;;;;;5099230;28;20040;-71
2022/03/27 13:48:19;;;;;;;29.23;8.30;;;;;;;;;;5093426;28;20510;-70
2022/03/27 13:50:45;;;;;;;24.48;4.65;;;;;;;;;;5095957;28;20050;-68
2022/03/27 13:53:12;;;;;;;27.15;6.93;;;;;;;;;;5095933;28;20067;-67
2022/03/27 13:55:38;;;;;;;25.63;6.20;;;;;;;;;;5094115;28;20362;-66
2022/03/27 13:58:04;;;;;;;25.77;5.95;;;;;;;;;;5099499;28;20040;-66
2022/03/27 14:00:33;;;;;;;25.35;6.05;;;;;;;;;;5097890;28;20122;-68
2022/03/27 14:02:59;;;;;;;20.58;5.18;;;;;;;;;;5098575;28;20047;-67
2022/03/27 14:05:25;;;;;;;18.25;4.80;;;;;;;;;;5100301;28;20052;-67
2022/03/27 14:07:52;;;;;;;14.33;4.37;;;;;;;;;;5094935;28;20052;-67
2022/03/27 14:10:18;;;;;;;23.42;5.72;;;;;;;;;;5091934;28;20048;-68
2022/03/27 14:12:44;;;;;;;16.92;4.88;;;;;;;;;;5090790;28;20051;-68
2022/03/27 14:15:10;;;;;;;17.98;4.68;;;;;;;;;;5099876;28;20078;-68
2022/03/27 14:17:37;;;;;;;25.33;5.37;;;;;;;;;;5098874;28;20055;-68
2022/03/27 14:20:04;;;;;;;22.83;6.07;;;;;;;;;;5101247;28;20044;-67
2022/03/27 14:22:30;;;;;;;21.23;4.80;;;;;;;;;;5093197;28;20504;-67
2022/03/27 14:24:56;;;;;;;19.27;5.45;;;;;;;;;;5103786;28;20118;-67
2022/03/27 14:27:22;;;;;;;31.08;10.90;;;;;;;;;;5093094;28;20115;-68
2022/03/27 14:29:49;;;;;;;23.00;6.67;;;;;;;;;;5095428;28;20059;-68
2022/03/27 14:32:16;;;;;;;28.40;10.68;;;;;;;;;;5099466;28;20060;-68
2022/03/27 14:34:42;;;;;;;;;;;;;;;;;;5097541;28;20037;-68
2022/03/27 14:37:09;;;;;;;13.30;3.53;;;;;;;;;;5092924;28;19946;-67
2022/03/27 14:39:35;;;;;;;26.83;8.82;;;;;;;;;;5098659;28;20056;-69
2022/03/27 14:42:03;;;;;;;21.13;5.10;;;;;;;;;;5096295;28;20073;-64
2022/03/27 14:44:29;;;;;;;18.25;4.75;;;;;;;;;;5100543;28;20082;-68
2022/03/27 14:46:55;;;;;;;17.40;3.92;;;;;;;;;;5094831;28;20082;-65